Nearby METAR Reports

 

KMLE - Omaha/Millard, Nebraska, USA
Distance from station: NE 1mi, 2km
Updated: Mon, 22-Jul-2024 11:55am CDT
Overcast
Overcast
 Wind from WNW
Wind: WNW 3 mph, 6 km/h
Temperature: 77°F, 25°C
Dew Point: 64°F, 18°C
Humidity: 65%
Barometer: 30.08 inHg, 1018.6 hPa
Clouds: Overcast
Visibility: 10 miles, 16 km
Cloud details: Partly cloudy 4000 ft
Mostly cloudy 6500 ft
Overcast 7000 ft
2024/07/22 16:55 KMLE 221655Z AUTO 29003KT 10SM SCT040 BKN065 OVC070 25/18 A3008 RMK AO2 T02480180
KOFF - Offutt Afb/Belle, Nebraska, USA
Distance from station: ESE 12mi, 20km
Updated: Mon, 22-Jul-2024 11:55am CDT
Mostly cloudy
Mostly cloudy
 Wind from calm
Wind: Calm
Temperature: 81°F, 27°C
Heat Index: 83°F, 28°C
Dew Point: 66°F, 19°C
Humidity: 62%
Barometer: 30.07 inHg, 1018.3 hPa
Clouds: Mostly cloudy
Visibility: 10 miles, 16 km
Cloud details: Partly cloudy 2900 ft
Mostly cloudy 20000 ft
2024/07/22 16:55 KOFF 221655Z 00000KT 10SM SCT029TCU BKN200 27/19 A3007 RMK AO2A TCU ALQDS SLP180 T02710189 $
 
KOMA - Omaha/Eppley, Nebraska, USA
Distance from station: NE 15mi, 24km
Updated: Mon, 22-Jul-2024 11:52am CDT
Mostly cloudy
Mostly cloudy
 Wind from calm
Wind: Calm
Temperature: 81°F, 27°C
Heat Index: 83°F, 28°C
Dew Point: 66°F, 19°C
Humidity: 62%
Barometer: 30.08 inHg, 1018.6 hPa
Clouds: Mostly cloudy
Visibility: 10 miles, 16 km
Cloud details: Few Clouds 2500 ft
Mostly cloudy 3400 ft
Mostly cloudy 19000 ft
2024/07/22 16:52 KOMA 221652Z 00000KT 10SM FEW025 BKN034 BKN190 27/19 A3008 RMK AO2 SLP177 MOD CU OHD AND S-W T02720189
KBTA - Blair Muni, Nebraska, USA
Distance from station: N 16mi, 25km
Updated: Mon, 22-Jul-2024 11:55am CDT
Partly cloudy
Partly cloudy
 Wind from SW
Wind: SW 5 mph, 7 km/h
Temperature: 77°F, 25°C
Dew Point: 64°F, 18°C
Humidity: 65%
Barometer: 30.09 inHg, 1019 hPa
Clouds: Partly cloudy
Visibility: 10 miles, 16 km
Cloud details: Partly cloudy 2500 ft
Partly cloudy 4800 ft
2024/07/22 16:55 KBTA 221655Z AUTO 22004KT 10SM SCT025 SCT048 25/18 A3009 RMK AO2 T02510181
 
KCBF - Council Bluffs, Iowa, USA
Distance from station: ENE 20mi, 32km
Updated: Mon, 22-Jul-2024 11:55am CDT
Overcast
Overcast
 Wind from varies
Wind: varies 5 mph, 7 km/h
Temperature: 79°F, 26°C
Dew Point: 68°F, 20°C
Humidity: 70%
Barometer: 30.07 inHg, 1018.3 hPa
Clouds: Overcast
Visibility: 8 miles, 13 km
Cloud details: Mostly cloudy 2900 ft
Overcast 3400 ft
2024/07/22 16:55 KCBF 221655Z AUTO VRB04KT 8SM BKN029 OVC034 26/20 A3007 RMK AO2
KPMV - Plattsmouth Muni, Nebraska, USA
Distance from station: SE 20mi, 32km
Updated: Mon, 22-Jul-2024 11:55am CDT
Partly cloudy
Partly cloudy
 Wind from calm
Wind: Calm
Temperature: 77°F, 25°C
Dew Point: 66°F, 19°C
Humidity: 69%
Barometer: 30.09 inHg, 1019 hPa
Clouds: Partly cloudy
Visibility: 10 miles, 16 km
Cloud details: Partly cloudy 4400 ft
Partly cloudy 4900 ft
2024/07/22 16:55 KPMV 221655Z AUTO 00000KT 10SM SCT044 SCT049 25/19 A3009 RMK AO2 T02470187
 
KAHQ - Wahoo, Nebraska, USA
Distance from station: W 25mi, 40km
Updated: Mon, 22-Jul-2024 11:55am CDT
Mostly cloudy
Mostly cloudy
 Wind from calm
Wind: Calm
Temperature: 77°F, 25°C
Dew Point: 66°F, 19°C
Humidity: 69%
Barometer: 30.09 inHg, 1019 hPa
Clouds: Mostly cloudy
Visibility: 10 miles, 16 km
Cloud details: Partly cloudy 3400 ft
Mostly cloudy 4100 ft
Mostly cloudy 7000 ft
2024/07/22 16:55 KAHQ 221655Z AUTO 00000KT 10SM SCT034 BKN041 BKN070 25/19 A3009 RMK AO2 T02520186
KFET - Fremont Muni Arp, Nebraska, USA
Distance from station: NW 27mi, 43km
Updated: Mon, 22-Jul-2024 11:55am CDT
Partly cloudy
Partly cloudy
 Wind from calm
Wind: Calm
Temperature: 77°F, 25°C
Dew Point: 64°F, 18°C
Humidity: 65%
Barometer: 30.09 inHg, 1019 hPa
Clouds: Partly cloudy
Visibility: 10 miles, 16 km
Cloud details: Partly cloudy 2900 ft
Partly cloudy 4500 ft
Partly cloudy 7500 ft
2024/07/22 16:55 KFET 221655Z AUTO 00000KT 10SM SCT029 SCT045 SCT075 25/18 A3009 RMK AO2 T02520175
 
KTQE - Tekamah, Nebraska, USA
Distance from station: N 40mi, 64km
Updated: Mon, 22-Jul-2024 11:54am CDT
Few Clouds
Few Clouds
 Wind from varies
Wind: varies 3 mph, 6 km/h
Temperature: 81°F, 27°C
Heat Index: 83°F, 28°C
Dew Point: 66°F, 19°C
Humidity: 62%
Barometer: 30.08 inHg, 1018.6 hPa
Clouds: Few Clouds
Visibility: 10 miles, 16 km
Cloud details: Few Clouds 2900 ft
Few Clouds 3300 ft
2024/07/22 16:54 KTQE 221654Z AUTO VRB03KT 10SM FEW029 FEW033 27/19 A3008 RMK AO2 SLP173 T02720189
KLNK - Lincoln, Nebraska, USA
Distance from station: SW 41mi, 65km
Updated: Mon, 22-Jul-2024 11:54am CDT
Few Clouds
Few Clouds
 Wind from calm
Wind: Calm
Temperature: 81°F, 27°C
Heat Index: 83°F, 28°C
Dew Point: 64°F, 18°C
Humidity: 58%
Barometer: 30.09 inHg, 1019 hPa
Clouds: Few Clouds
Visibility: 8 miles, 13 km
Cloud details: Few Clouds 5000 ft
2024/07/22 16:54 KLNK 221654Z 00000KT 8SM FEW050 27/18 A3009 RMK AO2 SLP180 T02670183
 
KAFK - Nebraska City, Nebraska, USA
Distance from station: SSE 43mi, 70km
Updated: Mon, 22-Jul-2024 11:55am CDT
Overcast
Overcast
 Wind from calm
Wind: Calm
Temperature: 75°F, 24°C
Dew Point: 66°F, 19°C
Humidity: 74%
Barometer: 30.10 inHg, 1019.3 hPa
Clouds: Overcast
Visibility: 10 miles, 16 km
Cloud details: Partly cloudy 2600 ft
Mostly cloudy 3900 ft
Overcast 6500 ft
2024/07/22 16:55 KAFK 221655Z AUTO 00000KT 10SM SCT026 BKN039 OVC065 24/19 A3010 RMK AO2 T02430188
KRDK - Red Oak, Iowa, USA
Distance from station: ESE 47mi, 75km
Updated: Mon, 22-Jul-2024 11:55am CDT
Few Clouds
Few Clouds
 Wind from varies
Wind: varies 3 mph, 6 km/h
Temperature: 81°F, 27°C
Heat Index: 83°F, 28°C
Dew Point: 64°F, 18°C
Humidity: 58%
Barometer: 30.09 inHg, 1019 hPa
Clouds: Few Clouds
Visibility: 10 miles, 16 km
Cloud details: Few Clouds 2900 ft
Few Clouds 3700 ft
Few Clouds 7000 ft
2024/07/22 16:55 KRDK 221655Z AUTO VRB03KT 10SM FEW029 FEW037 FEW070 27/18 A3009 RMK AO2
 
KSDA - Shenandoah Muni, Iowa, USA
Distance from station: SE 48mi, 77km
Updated: Mon, 22-Jul-2024 11:55am CDT

 Wind from W
Wind: W 5 mph, 7 km/h
Temperature: 79°F, 26°C
Dew Point: 68°F, 20°C
Humidity: 70%
Barometer: 30.07 inHg, 1018.3 hPa
Visibility: 10 miles, 16 km
2024/07/22 16:55 KSDA 221655Z AUTO 26004KT 10SM 26/20 A3007 RMK AO2
KHNR - Harlan Muni, Iowa, USA
Distance from station: NE 49mi, 80km
Updated: Mon, 22-Jul-2024 11:55am CDT
Few Clouds
Few Clouds
 Wind from ESE
Wind: ESE 5 mph, 7 km/h
Temperature: 79°F, 26°C
Dew Point: 66°F, 19°C
Humidity: 65%
Barometer: 30.09 inHg, 1019 hPa
Clouds: Few Clouds
Visibility: 10 miles, 16 km
Cloud details: Few Clouds 2700 ft
2024/07/22 16:55 KHNR 221655Z AUTO 12004KT 10SM FEW027 26/19 A3009 RMK A01